aviador You're here:

KMVH Decoded Metar

in
Report Time2018-02-22 08:45:00
UTC Time2018-02-22 08:53:21
Flight Rules vfr VFR
WindCalm
Visibility9999 m
Phenomena:N/A
Clouds:N/A
Expected CloudBase > 2,000 ft AGL from Temp-Dew spread
CeilingNone
Temp-18°C
Dew Point-23°C (65% RH)
AAT-21.7°C
QNH1017 hPa
Raw Report
METAR KMVH 220845Z AUTO 00000KT 10SM CLR M18/M23 A3002 RMK AO2=

Extra information for KMVH:More info

Social comments